createdAt,value
2016-06-06T08:40:08.402Z,490
2016-06-06T08:40:20.933Z,500
2016-06-06T08:41:21.139Z,490
2016-06-06T08:42:21.205Z,475
2016-06-06T08:43:21.255Z,450
2016-06-06T08:44:20.991Z,445
2016-06-06T08:45:21.353Z,450
2016-06-06T08:46:21.418Z,425
2016-06-06T08:47:21.515Z,415
2016-06-06T08:48:21.502Z,410
2016-06-06T08:49:21.583Z,410
2016-06-06T08:50:21.601Z,405
2016-06-06T08:51:21.666Z,410
2016-06-06T08:52:21.716Z,415
2016-06-06T08:53:21.781Z,410
2016-06-06T08:54:21.815Z,430
2016-06-06T08:55:21.865Z,435
2016-06-06T08:56:21.929Z,435
2016-06-06T08:57:21.979Z,435
2016-06-06T08:58:22.044Z,425
2016-06-06T08:59:21.938Z,410
2016-06-06T09:00:22.143Z,415
2016-06-06T09:01:22.053Z,405
2016-06-06T09:02:22.227Z,405
2016-06-06T09:03:22.120Z,395
2016-06-06T09:04:22.217Z,395
2016-06-06T09:05:22.376Z,400
2016-06-06T09:06:22.425Z,400
2016-06-06T09:07:22.522Z,400
2016-06-06T09:08:22.539Z,405
2016-06-06T09:09:22.637Z,400
2016-06-06T09:10:22.655Z,405
2016-06-06T09:11:22.689Z,405
2016-06-06T09:12:22.770Z,405
2016-06-06T09:13:22.803Z,405
2016-06-06T09:14:22.728Z,405
2016-06-06T09:15:22.918Z,405
2016-06-06T09:16:22.811Z,405
2016-06-06T09:17:23.033Z,410
2016-06-06T09:18:23.099Z,410
2016-06-06T09:19:23.147Z,410
2016-06-06T09:20:23.150Z,415
2016-06-06T09:21:23.232Z,410
2016-06-06T09:22:23.280Z,410
2016-06-06T09:23:23.330Z,410
2016-06-06T09:24:23.365Z,410
2016-06-06T09:25:23.429Z,410
2016-06-06T09:26:23.370Z,410
2016-06-06T09:27:23.560Z,410
2016-06-06T09:28:23.579Z,415
2016-06-06T09:29:24.206Z,415
2016-06-06T09:30:23.693Z,410
2016-06-06T09:31:23.742Z,415
2016-06-06T09:32:23.807Z,415
2016-06-06T09:33:23.857Z,415
2016-06-06T09:34:23.907Z,415
2016-06-06T09:35:23.988Z,415
2016-06-06T09:36:23.725Z,420
2016-06-06T09:37:24.071Z,420
2016-06-06T09:38:24.089Z,420
2016-06-06T09:39:24.186Z,420
2016-06-06T09:40:24.204Z,420
2016-06-06T09:41:24.270Z,420
2016-06-06T09:42:24.319Z,425
2016-06-06T09:43:24.384Z,425
2016-06-06T09:44:24.808Z,430
2016-06-06T09:45:24.484Z,430
2016-06-06T09:46:24.533Z,430
2016-06-06T09:47:24.552Z,430
2016-06-06T09:48:24.632Z,430
2016-06-06T09:49:24.682Z,440
2016-06-06T09:50:24.777Z,435
2016-06-06T09:51:24.671Z,435
2016-06-06T09:52:24.815Z,435
2016-06-06T09:53:24.880Z,435
2016-06-06T09:54:24.961Z,435
2016-06-06T09:55:24.823Z,440
2016-06-06T09:56:25.076Z,440
2016-06-06T09:57:25.157Z,445
2016-06-06T09:58:25.174Z,440
2016-06-06T09:59:25.943Z,440
2016-06-06T10:00:25.258Z,440
2016-06-06T10:01:25.386Z,440
2016-06-06T10:02:25.263Z,440
2016-06-06T10:03:25.391Z,440
2016-06-06T10:04:25.487Z,440
2016-06-06T10:05:25.537Z,440
2016-06-06T10:06:25.587Z,445
2016-06-06T10:07:25.684Z,445
2016-06-06T10:08:25.733Z,445
2016-06-06T10:09:25.751Z,445
2016-06-06T10:10:25.800Z,445
2016-06-06T10:11:25.867Z,450
2016-06-06T10:12:25.900Z,450
2016-06-06T10:13:25.964Z,450
2016-06-06T10:14:26.593Z,450
2016-06-06T10:15:26.064Z,460
2016-06-06T10:16:26.130Z,460
2016-06-06T10:17:26.163Z,455
2016-06-06T10:18:26.228Z,460
2016-06-06T10:19:26.294Z,460
2016-06-06T10:20:26.328Z,460
2016-06-06T10:21:26.377Z,460
2016-06-06T10:22:26.442Z,460
2016-06-06T10:23:26.492Z,460
2016-06-06T10:24:26.541Z,460
2016-06-06T10:25:26.607Z,465
2016-06-06T10:26:26.641Z,465
2016-06-06T10:27:26.752Z,470
2016-06-06T10:28:26.754Z,465
2016-06-06T10:29:27.102Z,465
2016-06-06T10:30:26.885Z,470
2016-06-06T10:31:26.795Z,470
2016-06-06T10:32:26.953Z,470
2016-06-06T10:33:27.034Z,475
2016-06-06T10:34:27.068Z,475
2016-06-06T10:35:27.134Z,475
2016-06-06T10:36:27.198Z,475
2016-06-06T10:37:27.232Z,480
2016-06-06T10:38:27.313Z,480
2016-06-06T10:39:27.348Z,480
2016-06-06T10:40:27.412Z,485
2016-06-06T10:41:27.462Z,485
2016-06-06T10:42:27.542Z,490
2016-06-06T10:43:27.561Z,490
2016-06-06T10:44:29.126Z,495
2016-06-06T10:45:27.708Z,495
2016-06-06T10:46:27.569Z,495
2016-06-06T10:47:27.838Z,505
2016-06-06T10:48:27.544Z,500
2016-06-06T10:49:27.936Z,505
2016-06-06T10:50:27.971Z,505
2016-06-06T10:51:28.020Z,505
2016-06-06T10:52:27.914Z,510
2016-06-06T10:53:28.150Z,510
2016-06-06T10:54:28.169Z,510
2016-06-06T10:55:28.250Z,515
2016-06-06T10:56:28.330Z,515
2016-06-06T10:57:28.349Z,515
2016-06-06T10:58:28.382Z,520
2016-06-06T10:59:28.166Z,520
2016-06-06T11:00:28.513Z,530
2016-06-06T11:01:28.563Z,525
2016-06-06T11:02:28.628Z,525
2016-06-06T11:03:28.693Z,525
2016-06-06T11:04:28.759Z,525
2016-06-06T11:05:28.777Z,535
2016-06-06T11:06:28.843Z,530
2016-06-06T11:07:28.767Z,535
2016-06-06T11:08:28.972Z,535
2016-06-06T11:09:28.990Z,535
2016-06-06T11:10:29.087Z,535
2016-06-06T11:11:28.981Z,545
2016-06-06T11:12:29.186Z,545
2016-06-06T11:13:29.236Z,545
2016-06-06T11:14:29.645Z,550
2016-06-06T11:15:29.334Z,550
2016-06-06T11:16:29.416Z,550
2016-06-06T11:17:29.480Z,550
2016-06-06T11:18:29.515Z,550
2016-06-06T11:19:29.595Z,555
2016-06-06T11:20:29.645Z,555
2016-06-06T11:21:29.695Z,560
2016-06-06T11:22:29.728Z,560
2016-06-06T11:23:29.669Z,560
2016-06-06T11:24:29.859Z,560
2016-06-06T11:25:29.908Z,565
2016-06-06T11:26:29.958Z,565
2016-06-06T11:27:30.024Z,570
2016-06-06T11:28:30.104Z,570
2016-06-06T11:29:30.326Z,575
2016-06-06T11:30:30.188Z,580
2016-06-06T11:31:30.252Z,575
2016-06-06T11:32:30.302Z,580
2016-06-06T11:33:30.383Z,585
2016-06-06T11:34:30.448Z,590
2016-06-06T11:35:30.467Z,590
2016-06-06T11:36:30.516Z,590
2016-06-06T11:37:30.613Z,590
2016-06-06T11:38:30.646Z,595
2016-06-06T11:39:30.712Z,595
2016-06-06T11:40:30.776Z,600
2016-06-06T11:41:30.811Z,605
2016-06-06T11:42:30.736Z,615
2016-06-06T11:43:30.957Z,620
2016-06-06T11:44:31.569Z,620
2016-06-06T11:45:31.869Z,620
2016-06-06T11:46:31.122Z,620
2016-06-06T11:47:31.217Z,620
2016-06-06T11:48:31.236Z,620
2016-06-06T11:49:31.301Z,620
2016-06-06T11:50:31.164Z,620
2016-06-06T11:51:31.400Z,630
2016-06-06T11:52:31.450Z,630
2016-06-06T11:53:31.500Z,630
2016-06-06T11:54:31.564Z,630
2016-06-06T11:55:31.614Z,635
2016-06-06T11:56:31.539Z,635
2016-06-06T11:57:31.744Z,640
2016-06-06T11:58:31.810Z,640
2016-06-06T11:59:33.327Z,645
2016-06-06T12:00:31.644Z,645
2016-06-06T12:01:31.974Z,650
2016-06-06T12:02:32.039Z,655
2016-06-06T12:03:31.933Z,650
2016-06-06T12:04:32.171Z,650
2016-06-06T12:05:31.923Z,650
2016-06-06T12:06:32.268Z,650
2016-06-06T12:07:32.350Z,650
2016-06-06T12:08:32.415Z,655
2016-06-06T12:09:32.479Z,660
2016-06-06T12:10:32.546Z,660
2016-06-06T12:11:32.579Z,660
2016-06-06T12:12:32.645Z,660
2016-06-06T12:13:32.570Z,660
2016-06-06T12:14:32.618Z,665
2016-06-06T12:15:32.668Z,675
2016-06-06T12:16:32.734Z,670
2016-06-06T12:17:32.955Z,670
2016-06-06T12:18:32.989Z,680
2016-06-06T12:19:33.070Z,675
2016-06-06T12:20:32.978Z,675
2016-06-06T12:21:33.278Z,670
2016-06-06T12:22:33.250Z,675
2016-06-06T12:23:33.330Z,675
2016-06-06T12:24:33.395Z,670
2016-06-06T12:25:33.460Z,675
2016-06-06T12:26:33.479Z,675
2016-06-06T12:27:33.591Z,675
2016-06-06T12:28:33.624Z,675
2016-06-06T12:29:34.455Z,680
2016-06-06T12:30:33.693Z,685
2016-06-06T12:31:33.805Z,690
2016-06-06T12:32:33.871Z,685
2016-06-06T12:33:33.904Z,685
2016-06-06T12:34:33.984Z,690
2016-06-06T12:35:34.066Z,700
2016-06-06T12:36:34.240Z,695
2016-06-06T12:37:34.212Z,705
2016-06-06T12:38:34.120Z,710
2016-06-06T12:39:34.310Z,710
2016-06-06T12:40:34.345Z,715
2016-06-06T12:41:34.441Z,720
2016-06-06T12:42:34.490Z,730
2016-06-06T12:43:34.557Z,735
2016-06-06T12:44:34.793Z,735
2016-06-06T12:45:34.530Z,750
2016-06-06T12:46:34.751Z,745
2016-06-06T12:47:34.864Z,750
2016-06-06T12:48:34.851Z,790
2016-06-06T12:49:34.947Z,995
2016-06-06T12:50:34.997Z,1290
2016-06-06T12:51:34.906Z,1595
2016-06-06T12:52:35.111Z,2020
2016-06-06T12:53:35.208Z,2265
2016-06-06T12:54:35.258Z,2390
2016-06-06T12:55:35.323Z,2350
2016-06-06T12:56:35.372Z,2395
2016-06-06T12:57:35.421Z,2345
2016-06-06T12:58:35.486Z,2255
2016-06-06T12:59:37.130Z,2405
2016-06-06T13:00:35.633Z,2375
2016-06-06T13:01:35.699Z,2420
2016-06-06T13:02:35.451Z,2430
2016-06-06T13:03:35.844Z,2410
2016-06-06T13:04:35.862Z,2440
2016-06-06T13:05:35.960Z,2385
2016-06-06T13:06:36.008Z,2330
2016-06-06T13:07:36.073Z,2350
2016-06-06T13:08:35.827Z,2385
2016-06-06T13:09:36.048Z,2430
2016-06-06T13:10:36.269Z,2430
2016-06-06T13:11:36.350Z,2420
2016-06-06T13:12:36.399Z,2360
2016-06-06T13:13:36.465Z,2415
2016-06-06T13:14:37.015Z,2295
2016-06-06T13:15:36.454Z,2370
2016-06-06T13:16:36.660Z,2295
2016-06-06T13:17:36.412Z,2385
2016-06-06T13:18:36.790Z,2505
2016-06-06T13:19:36.825Z,2505
2016-06-06T13:20:36.906Z,2410
2016-06-06T13:21:36.986Z,2390
2016-06-06T13:22:37.051Z,2510
2016-06-06T13:23:37.101Z,2505
2016-06-06T13:24:37.197Z,2510
2016-06-06T13:25:37.247Z,2580
2016-06-06T13:26:37.312Z,2485
2016-06-06T13:27:37.361Z,2515
2016-06-06T13:28:37.427Z,2550
2016-06-06T13:29:37.867Z,2495
2016-06-06T13:30:37.682Z,2510
2016-06-06T13:31:37.638Z,2410
2016-06-06T13:32:37.703Z,2410
2016-06-06T13:33:37.627Z,2325
2016-06-06T13:34:37.833Z,2470
2016-06-06T13:35:37.743Z,2595
2016-06-06T13:36:37.980Z,2580
2016-06-06T13:37:37.873Z,2495
2016-06-06T13:38:38.094Z,2405
2016-06-06T13:39:38.176Z,2275
2016-06-06T13:40:38.224Z,2395
2016-06-06T13:41:38.290Z,2450
2016-06-06T13:42:38.370Z,2520
2016-06-06T13:43:38.437Z,2465
2016-06-06T13:44:38.768Z,2445
2016-06-06T13:45:38.410Z,2410
2016-06-06T13:46:38.615Z,2385
2016-06-06T13:47:38.744Z,2230
2016-06-06T13:48:38.762Z,2160
2016-06-06T13:49:38.827Z,2370
2016-06-06T13:50:38.892Z,2475
2016-06-06T13:51:38.958Z,2540
2016-06-06T13:52:39.007Z,2440
2016-06-06T13:53:39.103Z,2405
2016-06-06T13:54:39.169Z,2425
2016-06-06T13:55:39.078Z,2455
2016-06-06T13:56:39.299Z,2425
2016-06-06T13:57:39.380Z,2425
2016-06-06T13:58:39.413Z,2545
2016-06-06T13:59:40.385Z,2525
2016-06-06T14:00:39.419Z,2535
2016-06-06T14:01:39.781Z,2515
2016-06-06T14:02:39.706Z,2580
2016-06-06T14:03:39.771Z,2680
2016-06-06T14:04:39.821Z,2725
2016-06-06T14:05:39.902Z,2675
2016-06-06T14:06:39.967Z,2655
2016-06-06T14:07:40.032Z,2690
2016-06-06T14:08:40.097Z,2675
2016-06-06T14:09:40.146Z,2595
2016-06-06T14:10:40.227Z,2590
2016-06-06T14:11:40.293Z,2565
2016-06-06T14:12:40.358Z,2630
2016-06-06T14:13:40.423Z,2580
2016-06-06T14:14:41.160Z,2595
2016-06-06T14:15:40.866Z,2715
2016-06-06T14:16:40.635Z,2695
2016-06-06T14:17:40.699Z,2595
2016-06-06T14:18:40.764Z,2445
2016-06-06T14:19:40.845Z,2560
2016-06-06T14:20:40.926Z,2580
2016-06-06T14:21:40.975Z,2520
2016-06-06T14:22:40.900Z,2520
2016-06-06T14:23:41.122Z,2505
2016-06-06T14:24:41.172Z,2570
2016-06-06T14:25:41.284Z,2500
2016-06-06T14:26:41.317Z,2375
2016-06-06T14:27:41.382Z,2260
2016-06-06T14:28:41.433Z,2320
2016-06-06T14:29:41.466Z,2510
2016-06-06T14:30:42.952Z,2420
2016-06-06T14:31:41.675Z,2390
2016-06-06T14:32:41.708Z,2395
2016-06-06T14:33:41.789Z,2220
2016-06-06T14:34:41.854Z,2095
2016-06-06T14:35:41.919Z,1940
2016-06-06T14:36:41.985Z,1920
2016-06-06T14:37:42.050Z,1945
2016-06-06T14:38:42.115Z,1860
2016-06-06T14:39:42.166Z,1850
2016-06-06T14:40:42.246Z,1940
2016-06-06T14:41:42.326Z,2005
2016-06-06T14:42:42.376Z,2070
2016-06-06T14:43:42.457Z,2070
2016-06-06T14:44:43.476Z,2070
2016-06-06T14:45:43.165Z,2120
2016-06-06T14:46:42.652Z,2150
2016-06-06T14:47:42.764Z,2080
2016-06-06T14:48:42.768Z,2070
2016-06-06T14:49:42.832Z,2005
2016-06-06T14:50:42.912Z,1775
2016-06-06T14:51:42.962Z,1750
2016-06-06T14:52:42.903Z,1870
2016-06-06T14:53:43.092Z,1885
2016-06-06T14:54:43.173Z,1820
2016-06-06T14:55:43.239Z,1720
2016-06-06T14:56:43.273Z,1785
2016-06-06T14:57:43.369Z,1625
2016-06-06T14:58:43.435Z,1600
2016-06-06T14:59:43.187Z,1645
2016-06-06T15:00:44.034Z,1595
2016-06-06T15:01:44.880Z,1635
2016-06-06T15:02:43.680Z,1595
2016-06-06T15:03:43.589Z,1555
2016-06-06T15:04:43.825Z,1570
2016-06-06T15:05:43.891Z,1655
2016-06-06T15:06:43.956Z,1575
2016-06-06T15:07:44.005Z,1555
2016-06-06T15:08:44.072Z,1540
2016-06-06T15:09:44.152Z,1385
2016-06-06T15:10:44.170Z,1275
2016-06-06T15:11:44.282Z,1145
2016-06-06T15:12:44.347Z,1110
2016-06-06T15:13:44.396Z,1045
2016-06-06T15:14:46.243Z,965
2016-06-06T15:15:44.559Z,995
2016-06-06T15:16:44.576Z,980
2016-06-06T15:17:44.626Z,975
2016-06-06T15:18:44.723Z,970
2016-06-06T15:19:44.773Z,955
2016-06-06T15:20:44.838Z,950
2016-06-06T15:21:44.887Z,920
2016-06-06T15:22:44.953Z,910
2016-06-06T15:23:45.034Z,930
2016-06-06T15:24:45.084Z,910
2016-06-06T15:25:45.132Z,860
2016-06-06T15:26:45.213Z,835
2016-06-06T15:27:45.262Z,845
2016-06-06T15:28:45.328Z,845
2016-06-06T15:29:45.612Z,850
2016-06-06T15:30:45.631Z,845
2016-06-06T15:31:45.508Z,840
2016-06-06T15:32:45.573Z,785
2016-06-06T15:33:45.653Z,755
2016-06-06T15:34:45.720Z,720
2016-06-06T15:35:45.769Z,695
2016-06-06T15:36:45.803Z,675
2016-06-06T15:37:45.868Z,660
2016-06-06T15:38:45.933Z,655
2016-06-06T15:39:45.983Z,650
2016-06-06T15:40:45.891Z,670
2016-06-06T15:41:46.129Z,700
2016-06-06T15:42:46.162Z,735
2016-06-06T15:43:46.227Z,695
2016-06-06T15:44:46.480Z,695
2016-06-06T15:45:47.233Z,705
2016-06-06T15:46:46.424Z,680
2016-06-06T15:47:46.504Z,680
2016-06-06T15:48:46.538Z,685
2016-06-06T15:49:46.604Z,680
2016-06-06T15:50:46.654Z,690
2016-06-06T15:51:46.546Z,710
2016-06-06T15:52:46.768Z,730
2016-06-06T15:53:46.676Z,720
2016-06-06T15:54:46.867Z,715
2016-06-06T15:55:46.807Z,695
2016-06-06T15:56:46.981Z,675
2016-06-06T15:57:47.062Z,665
2016-06-06T15:58:47.112Z,650
2016-06-06T15:59:47.756Z,645
2016-06-06T16:00:47.461Z,655
2016-06-06T16:01:47.292Z,670
2016-06-06T16:02:47.342Z,660
2016-06-06T16:03:47.422Z,670
2016-06-06T16:04:47.472Z,670
2016-06-06T16:05:47.522Z,710
2016-06-06T16:06:47.586Z,710
2016-06-06T16:07:47.667Z,695
2016-06-06T16:08:47.686Z,675
2016-06-06T16:09:47.767Z,680
2016-06-06T16:10:47.816Z,740
2016-06-06T16:11:47.881Z,710
2016-06-06T16:12:47.775Z,745
2016-06-06T16:13:47.981Z,815
2016-06-06T16:14:48.358Z,865
2016-06-06T16:15:49.892Z,860
2016-06-06T16:16:48.160Z,850
2016-06-06T16:17:48.241Z,800
2016-06-06T16:18:48.150Z,750
2016-06-06T16:19:48.341Z,795
2016-06-06T16:20:48.390Z,840
2016-06-06T16:21:48.487Z,840
2016-06-06T16:22:48.490Z,860
2016-06-06T16:23:48.585Z,920
2016-06-06T16:24:48.651Z,960
2016-06-06T16:25:48.685Z,975
2016-06-06T16:26:48.765Z,975
2016-06-06T16:27:48.815Z,1005
2016-06-06T16:28:48.865Z,995
2016-06-06T16:29:49.601Z,985
2016-06-06T16:30:49.854Z,885
2016-06-06T16:31:49.060Z,875
2016-06-06T16:32:49.094Z,890
2016-06-06T16:33:49.003Z,880
2016-06-06T16:34:49.240Z,870
2016-06-06T16:35:49.259Z,895
2016-06-06T16:36:49.339Z,900
2016-06-06T16:37:49.389Z,915
2016-06-06T16:38:49.470Z,930
2016-06-06T16:39:49.363Z,965
2016-06-06T16:40:49.584Z,860
2016-06-06T16:41:49.650Z,925
2016-06-06T16:42:49.688Z,895
2016-06-06T16:43:49.618Z,875
2016-06-06T16:44:49.984Z,830
2016-06-06T16:45:49.867Z,840
2016-06-06T16:46:49.954Z,800
2016-06-06T16:47:50.052Z,760
2016-06-06T16:48:49.916Z,740
2016-06-06T16:49:49.997Z,730
2016-06-06T16:50:50.205Z,735
2016-06-06T16:51:50.256Z,740
2016-06-06T16:52:50.307Z,715
2016-06-06T16:53:50.388Z,705
2016-06-06T16:54:50.423Z,675
2016-06-06T16:55:50.520Z,675
2016-06-06T16:56:50.539Z,660
2016-06-06T16:57:50.621Z,655
2016-06-06T16:58:50.654Z,655
2016-06-06T16:59:51.564Z,665
2016-06-06T17:00:50.536Z,650
2016-06-06T17:01:50.851Z,635
2016-06-06T17:02:50.901Z,625
2016-06-06T17:03:50.950Z,645
2016-06-06T17:04:51.031Z,645
2016-06-06T17:05:51.064Z,670
2016-06-06T17:06:51.131Z,720
2016-06-06T17:07:51.195Z,725
2016-06-06T17:08:51.245Z,700
2016-06-06T17:09:51.326Z,705
2016-06-06T17:10:51.375Z,735
2016-06-06T17:11:51.425Z,735
2016-06-06T17:12:51.475Z,765
2016-06-06T17:13:51.555Z,765
2016-06-06T17:14:51.730Z,750
2016-06-06T17:15:53.186Z,770
2016-06-06T17:16:51.719Z,790
2016-06-06T17:17:51.801Z,780
2016-06-06T17:18:51.835Z,780
2016-06-06T17:19:51.899Z,790
2016-06-06T17:20:51.949Z,780
2016-06-06T17:21:52.015Z,765
2016-06-06T17:22:52.080Z,755
2016-06-06T17:23:52.129Z,735
2016-06-06T17:24:52.195Z,670
2016-06-06T17:25:52.259Z,715
2016-06-06T17:26:52.293Z,760
2016-06-06T17:27:52.343Z,750
2016-06-06T17:28:52.408Z,820
2016-06-06T17:29:53.802Z,790
2016-06-06T17:30:53.273Z,740
2016-06-06T17:31:52.603Z,730
2016-06-06T17:32:52.498Z,715
2016-06-06T17:33:52.734Z,720
2016-06-06T17:34:52.767Z,690
2016-06-06T17:35:52.833Z,665
2016-06-06T17:36:52.898Z,650
2016-06-06T17:37:52.947Z,650
2016-06-06T17:38:52.998Z,635
2016-06-06T17:39:53.078Z,605
2016-06-06T17:40:53.112Z,580
2016-06-06T17:41:53.194Z,570
2016-06-06T17:42:53.211Z,525
2016-06-06T17:43:53.308Z,465
2016-06-06T17:44:53.513Z,440
2016-06-06T17:45:54.080Z,435
2016-06-06T17:46:53.457Z,395
2016-06-06T17:47:53.568Z,375
2016-06-06T17:48:53.572Z,345
2016-06-06T17:49:53.465Z,330
2016-06-06T17:50:53.701Z,325
2016-06-06T17:51:53.735Z,315
2016-06-06T17:52:53.801Z,315
2016-06-06T17:53:53.851Z,305
2016-06-06T17:54:53.915Z,305
2016-06-06T17:55:53.965Z,300
2016-06-06T17:56:54.031Z,280
2016-06-06T17:57:54.111Z,260
2016-06-06T17:58:54.145Z,250
2016-06-06T17:59:55.257Z,245
2016-06-06T18:00:54.370Z,255
2016-06-06T18:01:54.169Z,260
2016-06-06T18:02:54.390Z,275
2016-06-06T18:03:54.409Z,275
2016-06-06T18:04:54.473Z,280
2016-06-06T18:05:54.570Z,280
2016-06-06T18:06:54.589Z,285
2016-06-06T18:07:54.638Z,285
2016-06-06T18:08:54.719Z,285
2016-06-06T18:09:54.753Z,285
2016-06-06T18:10:54.802Z,305
2016-06-06T18:11:54.867Z,345
2016-06-06T18:12:54.933Z,355
2016-06-06T18:13:54.983Z,335
2016-06-06T18:14:55.094Z,305
2016-06-06T18:15:54.941Z,275
2016-06-06T18:16:55.147Z,255
2016-06-06T18:17:55.212Z,250
2016-06-06T18:18:55.246Z,260
2016-06-06T18:19:55.327Z,275
2016-06-06T18:20:55.361Z,290
2016-06-06T18:21:55.426Z,295
2016-06-06T18:22:55.476Z,285
2016-06-06T18:23:55.556Z,285
2016-06-06T18:24:55.591Z,280
2016-06-06T18:25:55.670Z,285
2016-06-06T18:26:55.720Z,280
2016-06-06T18:27:55.754Z,270
2016-06-06T18:28:55.820Z,270
2016-06-06T18:29:56.665Z,265
2016-06-06T18:30:56.388Z,240
2016-06-06T18:31:56.000Z,215
2016-06-06T18:32:56.017Z,195
2016-06-06T18:33:56.098Z,185
2016-06-06T18:34:56.164Z,180
2016-06-06T18:35:56.214Z,170
2016-06-06T18:36:56.263Z,165
2016-06-06T18:37:56.312Z,170
2016-06-06T18:38:56.378Z,175
2016-06-06T18:39:56.411Z,175
2016-06-06T18:40:56.492Z,165
2016-06-06T18:41:56.511Z,145
2016-06-06T18:42:56.575Z,130
2016-06-06T18:43:56.642Z,120
2016-06-06T18:44:57.331Z,115
2016-06-06T18:45:57.647Z,110
2016-06-06T18:46:56.633Z,105
2016-06-06T18:47:56.902Z,100
2016-06-06T18:48:56.936Z,100
2016-06-06T18:49:56.969Z,90
2016-06-06T18:50:56.863Z,85
2016-06-06T18:51:57.085Z,80
2016-06-06T18:52:57.135Z,75
2016-06-06T18:53:57.199Z,70
2016-06-06T18:54:57.248Z,70
2016-06-06T18:55:57.299Z,65
2016-06-06T18:56:57.363Z,60
2016-06-06T18:57:57.413Z,60
2016-06-06T18:58:57.448Z,55
2016-06-06T18:59:57.887Z,55
2016-06-06T19:00:58.389Z,55
2016-06-06T19:01:57.611Z,55
2016-06-06T19:02:57.676Z,50
2016-06-06T19:03:57.757Z,50
2016-06-06T19:04:57.775Z,50
2016-06-06T19:05:57.825Z,45
2016-06-06T19:06:57.875Z,45
2016-06-06T19:07:57.956Z,40
2016-06-06T19:09:04.052Z,40
2016-06-06T19:09:58.039Z,40
2016-06-06T19:10:58.105Z,40
2016-06-06T19:11:58.154Z,35
2016-06-06T19:12:58.203Z,35
2016-06-06T19:13:58.253Z,35
2016-06-06T19:14:58.318Z,30
2016-06-06T19:15:58.353Z,30
2016-06-06T19:16:58.777Z,30
2016-06-06T19:17:58.764Z,30
2016-06-06T19:18:58.516Z,25
2016-06-06T19:19:58.597Z,25
2016-06-06T19:20:58.632Z,25
2016-06-06T19:21:58.681Z,25
2016-06-06T19:22:58.746Z,25
2016-06-06T19:23:58.796Z,20
2016-06-06T19:24:58.845Z,20
2016-06-06T19:25:58.926Z,20
2016-06-06T19:26:58.788Z,20
2016-06-06T19:27:59.009Z,20
2016-06-06T19:28:59.090Z,20
2016-06-06T19:29:59.109Z,20
2016-06-06T19:30:59.174Z,20
2016-06-06T19:31:58.911Z,20
2016-06-06T19:32:59.273Z,15
2016-06-06T19:33:59.323Z,15
2016-06-06T19:35:00.544Z,15
2016-06-06T19:35:59.875Z,15
2016-06-06T19:36:59.487Z,15
2016-06-06T19:37:59.521Z,10
2016-06-06T19:38:59.570Z,10
2016-06-06T19:39:59.651Z,10
2016-06-06T19:40:59.701Z,10
2016-06-06T19:41:59.734Z,10
2016-06-06T19:42:59.816Z,10
2016-06-06T19:43:59.850Z,10
2016-06-06T19:44:59.914Z,5
2016-06-06T19:45:59.933Z,5
2016-06-06T19:47:00.014Z,5
2016-06-06T19:48:00.125Z,5
2016-06-06T19:48:59.988Z,5
2016-06-06T19:50:00.193Z,5
2016-06-06T19:51:00.212Z,5
2016-06-06T19:52:00.293Z,5
2016-06-06T19:53:00.343Z,5
2016-06-06T19:54:00.376Z,5
2016-06-06T19:55:00.426Z,0
2016-06-06T19:56:00.507Z,0
2016-06-06T19:57:00.541Z,0
2016-06-06T19:58:00.418Z,0
2016-06-06T19:59:00.640Z,0
2016-06-06T20:00:00.532Z,0
2016-06-06T20:01:00.754Z,0
2016-06-06T20:02:00.788Z,0
2016-06-06T20:03:00.697Z,0
2016-06-06T20:04:00.903Z,0
2016-06-06T20:05:01.704Z,0
2016-06-06T20:06:01.033Z,0
2016-06-06T20:07:01.084Z,0
2016-06-06T20:08:01.133Z,0
2016-06-06T20:09:01.151Z,0
2016-06-06T20:10:01.231Z,0
2016-06-06T20:11:01.281Z,0
2016-06-06T20:12:01.331Z,0
2016-06-06T20:13:01.224Z,0
2016-06-06T20:14:01.430Z,0
2016-06-06T20:15:01.495Z,0
2016-06-06T20:16:01.544Z,0
2016-06-06T20:17:01.578Z,0
2016-06-06T20:18:01.660Z,0
2016-06-06T20:19:01.694Z,0
2016-06-06T20:20:02.290Z,0
2016-06-06T20:21:01.856Z,0
2016-06-06T20:22:01.858Z,0
2016-06-06T20:23:01.876Z,0
2016-06-06T20:24:01.957Z,0
2016-06-06T20:25:02.007Z,0
2016-06-06T20:26:02.040Z,0
2016-06-06T20:27:02.121Z,0
2016-06-06T20:28:02.155Z,0
2016-06-06T20:29:02.205Z,0
2016-06-06T20:30:02.254Z,0
2016-06-06T20:31:02.320Z,0
2016-06-06T20:32:02.369Z,0
2016-06-06T20:33:02.451Z,0
2016-06-06T20:34:02.297Z,0
2016-06-06T20:35:03.393Z,0
2016-06-06T20:36:02.989Z,0
2016-06-06T20:37:02.648Z,0
2016-06-06T20:38:02.682Z,0
2016-06-06T20:39:02.731Z,0
2016-06-06T20:40:02.797Z,0
2016-06-06T20:41:02.847Z,0
2016-06-06T20:42:02.865Z,0
2016-06-06T20:43:02.914Z,0
2016-06-06T20:44:03.011Z,0
2016-06-06T20:45:03.060Z,0
2016-06-06T20:46:03.078Z,0
2016-06-06T20:47:03.159Z,0
2016-06-06T20:48:03.241Z,0
2016-06-06T20:49:03.243Z,0
2016-06-06T20:50:03.652Z,0
2016-06-06T20:51:03.076Z,0
2016-06-06T20:52:03.235Z,0
2016-06-06T20:53:03.457Z,0
2016-06-06T20:54:03.491Z,0
2016-06-06T20:55:03.555Z,0
2016-06-06T20:56:03.621Z,0
2016-06-06T20:57:03.655Z,0
2016-06-06T20:58:03.580Z,0
2016-06-06T20:59:03.785Z,0
2016-06-06T21:00:03.819Z,0
2016-06-06T21:01:03.869Z,0
2016-06-06T21:02:03.794Z,0
2016-06-06T21:03:03.969Z,0
2016-06-06T21:04:03.876Z,0
2016-06-06T21:05:04.629Z,0
2016-06-06T21:06:05.102Z,0
2016-06-06T21:07:04.182Z,0
2016-06-06T21:08:04.231Z,0
2016-06-06T21:09:04.297Z,0
2016-06-06T21:10:04.206Z,0
2016-06-06T21:11:04.381Z,0
2016-06-06T21:12:04.461Z,0
2016-06-06T21:13:04.511Z,0
2016-06-06T21:14:04.561Z,0
2016-06-06T21:15:04.595Z,0
2016-06-06T21:16:04.675Z,0
2016-06-06T21:17:04.709Z,0
2016-06-06T21:18:04.742Z,0
2016-06-06T21:19:04.793Z,0
2016-06-06T21:20:05.638Z,0
2016-06-06T21:21:05.407Z,0
2016-06-06T21:22:04.941Z,0
2016-06-06T21:23:04.991Z,0
2016-06-06T21:24:05.071Z,0
2016-06-06T21:25:05.121Z,0
2016-06-06T21:26:05.155Z,0
2016-06-06T21:27:05.236Z,0
2016-06-06T21:28:05.269Z,0
2016-06-06T21:29:05.319Z,0
2016-06-06T21:30:05.385Z,0
2016-06-06T21:31:05.418Z,0
2016-06-06T21:32:05.499Z,0
2016-06-06T21:33:05.532Z,0
2016-06-06T21:34:05.598Z,0
2016-06-06T21:35:05.945Z,0
2016-06-06T21:36:05.557Z,0
2016-06-06T21:37:05.747Z,0
2016-06-06T21:38:05.781Z,0
2016-06-06T21:39:05.674Z,0
2016-06-06T21:40:05.896Z,0
2016-06-06T21:41:05.945Z,0
2016-06-06T21:42:05.979Z,0
2016-06-06T21:43:06.059Z,0
2016-06-06T21:44:06.109Z,0
2016-06-06T21:45:06.144Z,0
2016-06-06T21:46:06.192Z,0
2016-06-06T21:47:06.242Z,0
2016-06-06T21:48:06.355Z,0
2016-06-06T21:49:06.358Z,0
2016-06-06T21:50:07.094Z,0
2016-06-06T21:51:06.941Z,0
2016-06-06T21:52:06.522Z,0
2016-06-06T21:53:06.400Z,0
2016-06-06T21:54:06.636Z,0
2016-06-06T21:55:06.671Z,0
2016-06-06T21:56:06.719Z,0
2016-06-06T21:57:06.785Z,0
2016-06-06T21:58:06.835Z,0
2016-06-06T21:59:06.869Z,0
2016-06-06T22:00:06.777Z,0
2016-06-06T22:01:06.968Z,0
2016-06-06T22:02:07.018Z,0
2016-06-06T22:03:07.083Z,0
2016-06-06T22:04:07.132Z,0
2016-06-06T22:05:08.432Z,0
2016-06-06T22:06:07.246Z,0
2016-06-06T22:07:07.281Z,0
2016-06-06T22:08:07.331Z,0
2016-06-06T22:09:07.412Z,0
2016-06-06T22:10:07.429Z,0
2016-06-06T22:11:07.479Z,0
2016-06-06T22:12:07.388Z,0
2016-06-06T22:13:07.595Z,0
2016-06-06T22:14:07.659Z,0
2016-06-06T22:15:07.693Z,0
2016-06-06T22:16:07.728Z,0
2016-06-06T22:17:07.808Z,0
2016-06-06T22:18:07.872Z,0
2016-06-06T22:19:09.845Z,0
2016-06-06T22:20:07.972Z,0
2016-06-06T22:21:08.006Z,0
2016-06-06T22:22:08.055Z,0
2016-06-06T22:23:08.121Z,0
2016-06-06T22:24:08.139Z,0
2016-06-06T22:25:08.220Z,0
2016-06-06T22:26:08.254Z,0
2016-06-06T22:27:08.303Z,0
2016-06-06T22:28:08.212Z,0
2016-06-06T22:29:08.402Z,0
2016-06-06T22:30:08.468Z,0
2016-06-06T22:31:08.361Z,0
2016-06-06T22:32:08.567Z,0
2016-06-06T22:33:09.788Z,0
2016-06-06T22:34:09.026Z,0